createdAt,value
2023-07-18T00:02:15.216Z,63.00
2023-07-18T00:04:42.084Z,62.90
2023-07-18T00:07:08.889Z,63.10
2023-07-18T00:09:38.570Z,63.10
2023-07-18T00:12:06.972Z,63.30
2023-07-18T00:14:33.985Z,63.50
2023-07-18T00:17:01.021Z,63.60
2023-07-18T00:19:28.520Z,63.40
2023-07-18T00:21:56.233Z,63.60
2023-07-18T00:24:23.395Z,63.60
2023-07-18T00:26:50.367Z,63.80
2023-07-18T00:29:17.297Z,64.00
2023-07-18T00:31:44.207Z,64.20
2023-07-18T00:34:12.038Z,64.50
2023-07-18T00:36:38.825Z,64.70
2023-07-18T00:39:05.559Z,65.80
2023-07-18T00:41:32.241Z,65.10
2023-07-18T00:43:59.110Z,65.20
2023-07-18T00:46:32.478Z,65.30
2023-07-18T00:48:59.482Z,65.70
2023-07-18T00:51:26.856Z,65.90
2023-07-18T00:53:54.334Z,66.00
2023-07-18T00:56:21.359Z,66.30
2023-07-18T00:58:48.364Z,66.30
2023-07-18T01:01:15.323Z,66.60
2023-07-18T01:03:42.634Z,66.90
2023-07-18T01:06:10.063Z,67.00
2023-07-18T01:08:37.025Z,67.20
2023-07-18T01:11:05.967Z,67.50
2023-07-18T01:13:32.711Z,67.70
2023-07-18T01:15:59.552Z,67.70
2023-07-18T01:18:26.252Z,67.80
2023-07-18T01:20:55.104Z,68.00
2023-07-18T01:23:22.561Z,68.10
2023-07-18T01:25:49.577Z,68.00
2023-07-18T01:28:16.641Z,68.00
2023-07-18T01:30:43.536Z,67.80
2023-07-18T01:33:10.354Z,67.80
2023-07-18T01:35:37.179Z,67.80
2023-07-18T01:38:04.574Z,67.80
2023-07-18T01:40:31.415Z,68.10
2023-07-18T01:42:58.967Z,68.00
2023-07-18T01:45:29.206Z,68.00
2023-07-18T01:47:57.732Z,68.20
2023-07-18T01:50:24.923Z,68.20
2023-07-18T01:52:51.787Z,68.30
2023-07-18T01:55:18.887Z,68.50
2023-07-18T01:57:48.490Z,68.70
2023-07-18T02:00:21.423Z,69.00
2023-07-18T02:02:54.664Z,69.00
2023-07-18T02:05:27.060Z,69.20
2023-07-18T02:07:54.091Z,69.30
2023-07-18T02:10:22.205Z,69.20
2023-07-18T02:12:50.565Z,69.40
2023-07-18T02:15:17.833Z,69.50
2023-07-18T02:17:45.357Z,69.50
2023-07-18T02:20:18.199Z,69.70
2023-07-18T02:22:46.396Z,69.80
2023-07-18T02:25:16.494Z,69.90
2023-07-18T02:27:43.522Z,70.00
2023-07-18T02:30:12.873Z,70.00
2023-07-18T02:32:40.622Z,70.20
2023-07-18T02:35:09.027Z,70.20
2023-07-18T02:37:36.083Z,70.40
2023-07-18T02:40:11.211Z,70.40
2023-07-18T02:42:39.163Z,70.40
2023-07-18T02:45:08.127Z,70.50
2023-07-18T02:47:35.281Z,70.60
2023-07-18T02:50:04.275Z,70.60
2023-07-18T02:52:31.090Z,70.60
2023-07-18T02:54:58.066Z,70.70
2023-07-18T02:57:24.866Z,70.80
2023-07-18T02:59:51.621Z,70.70
2023-07-18T03:02:18.566Z,70.90
2023-07-18T03:04:49.013Z,70.90
2023-07-18T03:07:19.005Z,71.10
2023-07-18T03:09:46.324Z,71.10
2023-07-18T03:12:13.494Z,71.00
2023-07-18T03:14:43.485Z,71.10
2023-07-18T03:17:10.406Z,71.10
2023-07-18T03:19:37.577Z,71.10
2023-07-18T03:22:04.451Z,71.20
2023-07-18T03:24:31.493Z,71.30
2023-07-18T03:26:58.212Z,71.20
2023-07-18T03:29:25.140Z,71.20
2023-07-18T03:31:52.230Z,71.20
2023-07-18T03:34:19.020Z,71.30
2023-07-18T03:36:46.299Z,71.40
2023-07-18T03:39:14.775Z,71.30
2023-07-18T03:41:41.632Z,71.30
2023-07-18T03:44:08.775Z,71.40
2023-07-18T03:46:35.683Z,71.40
2023-07-18T03:49:11.685Z,71.30
2023-07-18T03:51:41.342Z,71.40
2023-07-18T03:54:08.065Z,71.40
2023-07-18T03:56:35.323Z,71.40
2023-07-18T03:59:02.073Z,71.40
2023-07-18T04:01:28.850Z,71.40
2023-07-18T04:03:55.748Z,71.50
2023-07-18T04:06:22.971Z,71.50
2023-07-18T04:08:49.705Z,71.60
2023-07-18T04:11:16.669Z,71.60
2023-07-18T04:13:43.660Z,71.60
2023-07-18T04:16:10.548Z,71.60
2023-07-18T04:18:43.241Z,71.60
2023-07-18T04:21:10.219Z,71.70
2023-07-18T04:23:36.967Z,71.60
2023-07-18T04:26:04.815Z,71.70
2023-07-18T04:28:35.977Z,71.70
2023-07-18T04:31:03.214Z,71.80
2023-07-18T04:33:34.720Z,71.70
2023-07-18T04:36:01.822Z,71.90
2023-07-18T04:38:28.635Z,71.70
2023-07-18T04:40:55.498Z,71.80
2023-07-18T04:43:22.332Z,71.80
2023-07-18T04:45:49.272Z,71.80
2023-07-18T04:48:18.071Z,71.90
2023-07-18T04:50:47.856Z,72.00
2023-07-18T04:53:16.373Z,72.00
2023-07-18T04:55:43.257Z,71.90
2023-07-18T04:58:10.069Z,71.90
2023-07-18T05:00:38.011Z,71.90
2023-07-18T05:03:06.783Z,72.10
2023-07-18T05:05:33.916Z,71.90
2023-07-18T05:08:01.155Z,71.90
2023-07-18T05:10:30.497Z,71.80
2023-07-18T05:12:58.288Z,71.90
2023-07-18T05:15:25.261Z,71.90
2023-07-18T05:17:52.222Z,71.90
2023-07-18T05:20:22.233Z,71.90
2023-07-18T05:22:49.175Z,71.90
2023-07-18T05:25:18.817Z,71.70
2023-07-18T05:27:49.156Z,71.90
2023-07-18T05:30:18.277Z,71.90
2023-07-18T05:32:48.625Z,71.80
2023-07-18T05:35:15.561Z,71.80
2023-07-18T05:37:43.662Z,71.80
2023-07-18T05:40:11.648Z,71.70
2023-07-18T05:42:40.074Z,71.70
2023-07-18T05:45:11.284Z,71.60
2023-07-18T05:47:39.918Z,71.60
2023-07-18T05:50:07.789Z,71.40
2023-07-18T05:52:35.511Z,71.50
2023-07-18T05:55:03.549Z,71.40
2023-07-18T05:57:30.632Z,72.30
2023-07-18T06:00:00.589Z,71.40
2023-07-18T06:02:27.889Z,71.30
2023-07-18T06:04:56.999Z,71.10
2023-07-18T06:07:23.894Z,71.10
2023-07-18T06:09:54.172Z,71.00
2023-07-18T06:12:21.023Z,71.80
2023-07-18T06:14:47.844Z,71.00
2023-07-18T06:17:15.116Z,70.90
2023-07-18T06:19:42.233Z,70.80
2023-07-18T06:22:10.669Z,70.70
2023-07-18T06:24:37.511Z,71.60
2023-07-18T06:27:04.995Z,70.70
2023-07-18T06:29:32.668Z,70.70
2023-07-18T06:32:01.284Z,70.70
2023-07-18T06:34:31.919Z,70.70
2023-07-18T06:37:02.448Z,70.70
2023-07-18T06:39:30.551Z,70.80
2023-07-18T06:41:59.013Z,70.80
2023-07-18T06:44:26.057Z,70.90
2023-07-18T06:46:53.718Z,70.80
2023-07-18T06:49:21.900Z,70.70
2023-07-18T06:51:50.728Z,70.70
2023-07-18T06:54:18.735Z,70.70
2023-07-18T06:56:46.222Z,71.70
2023-07-18T06:59:14.750Z,72.60
2023-07-18T07:01:41.631Z,71.60
2023-07-18T07:04:08.803Z,69.70
2023-07-18T07:06:42.466Z,67.80
2023-07-18T07:09:16.509Z,66.50
2023-07-18T07:11:44.411Z,64.80
2023-07-18T07:14:13.485Z,64.10
2023-07-18T07:16:40.755Z,61.50
2023-07-18T07:19:10.201Z,60.60
2023-07-18T07:21:36.932Z,59.60
2023-07-18T07:24:03.884Z,58.60
2023-07-18T07:26:30.875Z,57.50
2023-07-18T07:28:57.783Z,57.20
2023-07-18T07:31:25.293Z,56.20
2023-07-18T07:33:53.669Z,55.70
2023-07-18T07:36:22.005Z,55.50
2023-07-18T07:38:49.459Z,55.20
2023-07-18T07:41:17.142Z,54.40
2023-07-18T07:43:44.214Z,53.90
2023-07-18T07:46:10.946Z,53.30
2023-07-18T07:48:37.835Z,52.90
2023-07-18T07:51:05.438Z,52.50
2023-07-18T07:53:32.311Z,52.20
2023-07-18T07:55:59.174Z,52.30
2023-07-18T07:58:26.111Z,51.70
2023-07-18T08:00:52.888Z,52.60
2023-07-18T08:03:19.574Z,51.80
2023-07-18T08:05:46.397Z,51.30
2023-07-18T08:08:13.265Z,51.20
2023-07-18T08:10:40.518Z,51.20
2023-07-18T08:13:07.352Z,52.10
2023-07-18T08:15:34.082Z,51.80
2023-07-18T08:18:01.311Z,51.70
2023-07-18T08:20:28.884Z,51.50
2023-07-18T08:22:56.115Z,52.10
2023-07-18T08:25:22.904Z,52.30
2023-07-18T08:27:49.655Z,52.20
2023-07-18T08:30:16.568Z,52.40
2023-07-18T08:32:52.917Z,52.20
2023-07-18T08:35:20.904Z,51.90
2023-07-18T08:37:48.886Z,52.60
2023-07-18T08:40:15.692Z,52.20
2023-07-18T08:42:47.238Z,52.00
2023-07-18T08:45:16.094Z,52.10
2023-07-18T08:47:44.907Z,51.40
2023-07-18T08:50:12.264Z,51.00
2023-07-18T08:52:39.351Z,51.10
2023-07-18T08:55:09.871Z,51.00
2023-07-18T08:57:38.070Z,51.10
2023-07-18T09:00:05.834Z,51.00
2023-07-18T09:02:32.799Z,50.50
2023-07-18T09:04:59.492Z,50.20
2023-07-18T09:07:28.470Z,49.70
2023-07-18T09:09:56.562Z,49.50
2023-07-18T09:12:23.734Z,49.30
2023-07-18T09:14:57.214Z,49.30
2023-07-18T09:17:26.594Z,49.20
2023-07-18T09:19:53.914Z,49.40
2023-07-18T09:22:20.844Z,48.60
2023-07-18T09:24:49.340Z,48.70
2023-07-18T09:27:19.104Z,49.30
2023-07-18T09:29:47.107Z,49.00
2023-07-18T09:32:18.599Z,50.10
2023-07-18T09:34:53.902Z,49.80
2023-07-18T09:37:20.969Z,49.90
2023-07-18T09:39:48.964Z,50.70
2023-07-18T09:42:21.263Z,49.50
2023-07-18T09:44:53.590Z,48.70
2023-07-18T09:47:23.710Z,47.70
2023-07-18T09:49:54.325Z,48.00
2023-07-18T09:52:27.777Z,48.20
2023-07-18T09:54:54.760Z,48.50
2023-07-18T09:57:22.864Z,48.70
2023-07-18T09:59:50.351Z,47.50
2023-07-18T10:02:17.555Z,47.30
2023-07-18T10:04:45.687Z,46.80
2023-07-18T10:07:13.056Z,46.40
2023-07-18T10:09:40.646Z,45.50
2023-07-18T10:12:08.400Z,45.60
2023-07-18T10:14:44.333Z,45.80
2023-07-18T10:17:24.917Z,45.60
2023-07-18T10:19:52.057Z,45.80
2023-07-18T10:22:32.241Z,46.10
2023-07-18T10:25:06.817Z,45.60
2023-07-18T10:27:47.358Z,44.60
2023-07-18T10:30:19.484Z,44.40
2023-07-18T10:32:57.721Z,44.30
2023-07-18T10:35:26.920Z,44.50
2023-07-18T10:38:01.618Z,44.20
2023-07-18T10:40:32.919Z,44.20
2023-07-18T10:43:03.070Z,44.20
2023-07-18T10:45:37.168Z,43.80
2023-07-18T10:48:17.785Z,42.60
2023-07-18T10:53:54.526Z,42.50
2023-07-18T10:56:23.901Z,43.70
2023-07-18T10:58:52.326Z,44.10
2023-07-18T11:01:19.813Z,42.70
2023-07-18T11:03:46.963Z,42.30
2023-07-18T11:06:16.020Z,42.00
2023-07-18T11:08:48.088Z,41.80
2023-07-18T11:11:16.635Z,42.50
2023-07-18T11:13:44.643Z,41.90
2023-07-18T11:16:16.390Z,41.50
2023-07-18T11:18:46.906Z,40.70
2023-07-18T11:21:17.613Z,41.00
2023-07-18T11:23:44.970Z,42.20
2023-07-18T11:26:17.408Z,41.30
2023-07-18T11:28:45.889Z,40.30
2023-07-18T11:31:40.844Z,41.80
2023-07-18T11:34:08.810Z,41.90
2023-07-18T11:36:37.788Z,40.90
2023-07-18T11:39:20.638Z,41.20
2023-07-18T11:41:48.461Z,41.80
2023-07-18T11:44:25.503Z,41.90
2023-07-18T11:46:53.906Z,41.40
2023-07-18T11:49:33.996Z,40.60
2023-07-18T11:52:03.344Z,41.30
2023-07-18T11:54:33.548Z,41.70
2023-07-18T11:57:00.303Z,41.90
2023-07-18T11:59:27.047Z,42.50
2023-07-18T12:01:53.850Z,43.10
2023-07-18T12:04:23.654Z,42.50
2023-07-18T12:06:51.141Z,42.30
2023-07-18T12:09:18.087Z,41.40
2023-07-18T12:11:50.634Z,41.80
2023-07-18T12:14:17.350Z,41.40
2023-07-18T12:16:47.754Z,41.10
2023-07-18T12:19:14.762Z,41.90
2023-07-18T12:21:41.474Z,42.50
2023-07-18T12:24:08.420Z,42.40
2023-07-18T12:26:35.218Z,41.20
2023-07-18T12:29:01.995Z,41.10
2023-07-18T12:31:28.885Z,40.60
2023-07-18T12:33:56.109Z,40.90
2023-07-18T12:36:23.209Z,40.30
2023-07-18T12:38:52.859Z,40.00
2023-07-18T12:41:19.891Z,40.40
2023-07-18T12:43:51.318Z,40.50
2023-07-18T12:46:27.643Z,40.40
2023-07-18T12:49:03.617Z,39.60
2023-07-18T12:51:33.481Z,40.80
2023-07-18T12:54:00.708Z,41.50
2023-07-18T12:56:27.570Z,41.80
2023-07-18T12:58:54.572Z,41.50
2023-07-18T13:01:21.738Z,40.10
2023-07-18T13:03:48.573Z,38.60
2023-07-18T13:06:15.360Z,39.20
2023-07-18T13:08:42.234Z,39.20
2023-07-18T13:11:09.220Z,39.70
2023-07-18T13:13:36.246Z,40.10
2023-07-18T13:16:03.062Z,40.10
2023-07-18T13:18:30.665Z,39.40
2023-07-18T13:20:57.432Z,38.60
2023-07-18T13:23:24.107Z,37.80
2023-07-18T13:25:50.846Z,37.90
2023-07-18T13:28:17.585Z,37.60
2023-07-18T13:30:44.300Z,37.70
2023-07-18T13:33:11.241Z,38.00
2023-07-18T13:35:38.158Z,38.80
2023-07-18T13:38:04.879Z,38.90
2023-07-18T13:40:31.643Z,37.50
2023-07-18T13:42:58.504Z,38.10
2023-07-18T13:45:25.789Z,38.30
2023-07-18T13:47:52.672Z,38.30
2023-07-18T13:50:31.324Z,37.80
2023-07-18T13:52:58.650Z,37.60
2023-07-18T13:55:28.964Z,36.90
2023-07-18T13:57:58.773Z,36.20
2023-07-18T14:00:25.537Z,37.50
2023-07-18T14:02:52.517Z,37.80
2023-07-18T14:05:19.400Z,38.70
2023-07-18T14:07:46.162Z,38.30
2023-07-18T14:10:13.204Z,38.50
2023-07-18T14:12:40.885Z,38.40
2023-07-18T14:15:08.812Z,38.60
2023-07-18T14:17:35.739Z,38.50
2023-07-18T14:20:02.608Z,38.00
2023-07-18T14:22:29.517Z,38.00
2023-07-18T14:24:56.515Z,37.30
2023-07-18T14:27:23.317Z,37.00
2023-07-18T14:29:52.791Z,37.10
2023-07-18T14:32:19.596Z,36.90
2023-07-18T14:34:46.417Z,37.20
2023-07-18T14:37:13.141Z,37.20
2023-07-18T14:39:40.461Z,37.20
2023-07-18T14:42:08.389Z,36.90
2023-07-18T14:44:36.532Z,37.10
2023-07-18T14:47:04.126Z,36.60
2023-07-18T14:49:30.903Z,36.50
2023-07-18T14:51:58.078Z,37.00
2023-07-18T14:54:24.953Z,36.50
2023-07-18T14:56:52.425Z,36.30
2023-07-18T14:59:19.273Z,36.20
2023-07-18T15:01:46.707Z,36.00
2023-07-18T15:04:13.635Z,35.60
2023-07-18T15:06:40.607Z,35.10
2023-07-18T15:09:07.401Z,35.30
2023-07-18T15:11:34.217Z,35.80
2023-07-18T15:14:03.170Z,35.60
2023-07-18T15:16:30.427Z,34.80
2023-07-18T15:18:57.346Z,35.10
2023-07-18T15:21:24.100Z,35.10
2023-07-18T15:23:50.860Z,36.10
2023-07-18T15:26:18.065Z,35.80
2023-07-18T15:28:45.156Z,35.50
2023-07-18T15:31:12.613Z,35.80
2023-07-18T15:33:39.564Z,36.00
2023-07-18T15:36:06.553Z,35.70
2023-07-18T15:38:35.578Z,35.70
2023-07-18T15:41:02.644Z,36.30
2023-07-18T15:43:29.386Z,35.50
2023-07-18T15:45:57.117Z,35.30
2023-07-18T15:48:24.001Z,34.80
2023-07-18T15:50:53.474Z,35.00
2023-07-18T15:53:20.437Z,35.30
2023-07-18T15:55:47.327Z,35.50
2023-07-18T15:58:14.189Z,35.80
2023-07-18T16:00:41.505Z,35.90
2023-07-18T16:03:08.321Z,35.50
2023-07-18T16:05:35.102Z,35.70
2023-07-18T16:08:04.485Z,35.60
2023-07-18T16:10:31.209Z,35.60
2023-07-18T16:12:58.038Z,35.40
2023-07-18T16:15:24.906Z,35.60
2023-07-18T16:17:53.142Z,35.60
2023-07-18T16:20:20.049Z,35.80
2023-07-18T16:22:49.272Z,36.20
2023-07-18T16:25:16.041Z,35.90
2023-07-18T16:27:42.887Z,35.90
2023-07-18T16:30:10.215Z,35.80
2023-07-18T16:32:37.111Z,35.60
2023-07-18T16:35:05.135Z,35.70
2023-07-18T16:37:32.003Z,35.50
2023-07-18T16:39:58.719Z,35.70
2023-07-18T16:42:25.532Z,35.90
2023-07-18T16:44:55.180Z,35.60
2023-07-18T16:47:23.155Z,35.30
2023-07-18T16:49:51.155Z,35.70
2023-07-18T16:52:18.029Z,35.60
2023-07-18T16:54:48.426Z,35.50
2023-07-18T16:57:16.662Z,35.60
2023-07-18T16:59:43.619Z,35.70
2023-07-18T17:02:10.495Z,35.80
2023-07-18T17:04:37.408Z,35.80
2023-07-18T17:07:04.344Z,35.70
2023-07-18T17:09:31.181Z,35.60
2023-07-18T17:11:57.969Z,35.80
2023-07-18T17:14:25.075Z,35.90
2023-07-18T17:16:51.988Z,36.10
2023-07-18T17:19:18.881Z,36.30
2023-07-18T17:21:45.625Z,36.70
2023-07-18T17:24:15.783Z,37.00
2023-07-18T17:26:43.521Z,36.90
2023-07-18T17:29:10.315Z,37.00
2023-07-18T17:31:37.154Z,37.00
2023-07-18T17:34:05.449Z,36.90
2023-07-18T17:36:32.308Z,37.20
2023-07-18T17:38:59.114Z,37.40
2023-07-18T17:41:25.951Z,37.90
2023-07-18T17:43:52.758Z,37.80
2023-07-18T17:46:20.483Z,38.00
2023-07-18T17:48:47.419Z,38.00
2023-07-18T17:51:14.155Z,38.10
2023-07-18T17:53:41.015Z,38.30
2023-07-18T17:56:08.228Z,38.50
2023-07-18T17:58:36.336Z,38.60
2023-07-18T18:01:03.461Z,38.70
2023-07-18T18:03:30.391Z,38.80
2023-07-18T18:05:57.276Z,39.00
2023-07-18T18:08:24.064Z,38.90
2023-07-18T18:10:51.494Z,39.00
2023-07-18T18:13:18.491Z,39.00
2023-07-18T18:15:56.303Z,39.10
2023-07-18T18:18:29.838Z,39.40
2023-07-18T18:21:01.395Z,39.40
2023-07-18T18:23:38.423Z,39.70
2023-07-18T18:26:07.300Z,39.90
2023-07-18T18:28:34.318Z,40.00
2023-07-18T18:31:01.377Z,40.20
2023-07-18T18:33:28.640Z,40.40
2023-07-18T18:35:55.715Z,40.60
2023-07-18T18:38:22.703Z,40.70
2023-07-18T18:40:49.493Z,41.10
2023-07-18T18:43:16.368Z,41.80
2023-07-18T18:45:43.752Z,42.50
2023-07-18T18:48:13.583Z,43.50
2023-07-18T18:50:43.030Z,44.30
2023-07-18T18:53:10.073Z,44.90
2023-07-18T18:55:37.063Z,46.10
2023-07-18T18:58:04.097Z,46.00
2023-07-18T19:00:31.014Z,46.40
2023-07-18T19:03:01.022Z,46.90
2023-07-18T19:05:27.870Z,47.10
2023-07-18T19:07:54.705Z,47.30
2023-07-18T19:10:21.735Z,47.40
2023-07-18T19:12:48.492Z,47.60
2023-07-18T19:15:15.461Z,47.70
2023-07-18T19:17:42.417Z,47.90
2023-07-18T19:20:09.776Z,48.00
2023-07-18T19:22:36.530Z,48.20
2023-07-18T19:25:04.765Z,47.90
2023-07-18T19:27:31.644Z,48.30
2023-07-18T19:29:58.583Z,48.40
2023-07-18T19:32:25.585Z,48.50
2023-07-18T19:34:52.298Z,48.60
2023-07-18T19:37:19.054Z,48.60
2023-07-18T19:39:45.825Z,48.70
2023-07-18T19:42:12.605Z,48.70
2023-07-18T19:44:42.201Z,48.70
2023-07-18T19:47:08.997Z,49.10
2023-07-18T19:49:35.872Z,49.10
2023-07-18T19:52:02.677Z,49.20
2023-07-18T19:54:29.571Z,49.20
2023-07-18T19:56:56.355Z,49.30
2023-07-18T19:59:24.478Z,49.20
2023-07-18T20:01:51.402Z,49.40
2023-07-18T20:04:18.643Z,49.20
2023-07-18T20:06:45.538Z,49.20
2023-07-18T20:09:12.450Z,49.00
2023-07-18T20:11:39.475Z,49.40
2023-07-18T20:14:09.257Z,49.40
2023-07-18T20:16:36.027Z,49.40
2023-07-18T20:19:03.266Z,49.50
2023-07-18T20:21:33.668Z,49.50
2023-07-18T20:24:00.442Z,49.50
2023-07-18T20:26:30.468Z,49.50
2023-07-18T20:29:01.105Z,49.50
2023-07-18T20:31:28.148Z,49.40
2023-07-18T20:33:55.107Z,49.50
2023-07-18T20:36:23.661Z,49.40
2023-07-18T20:38:50.372Z,49.30
2023-07-18T20:41:19.963Z,49.30
2023-07-18T20:43:47.054Z,49.40
2023-07-18T20:46:14.833Z,49.50
2023-07-18T20:48:41.631Z,49.60
2023-07-18T20:51:09.040Z,49.60
2023-07-18T20:53:35.794Z,49.40
2023-07-18T20:56:02.676Z,49.40
2023-07-18T20:58:29.686Z,49.90
2023-07-18T21:00:56.392Z,50.20
2023-07-18T21:03:23.322Z,50.40
2023-07-18T21:05:51.467Z,50.40
2023-07-18T21:08:19.233Z,50.60
2023-07-18T21:10:46.497Z,50.70
2023-07-18T21:13:13.565Z,50.80
2023-07-18T21:15:40.908Z,50.80
2023-07-18T21:18:07.961Z,50.70
2023-07-18T21:20:35.106Z,51.00
2023-07-18T21:23:02.701Z,50.80
2023-07-18T21:25:29.864Z,51.60
2023-07-18T21:27:58.429Z,51.40
2023-07-18T21:30:25.606Z,51.50
2023-07-18T21:32:52.459Z,51.50
2023-07-18T21:35:20.215Z,51.00
2023-07-18T21:37:47.019Z,51.40
2023-07-18T21:40:13.767Z,51.80
2023-07-18T21:42:40.508Z,51.60
2023-07-18T21:45:07.534Z,51.70
2023-07-18T21:47:34.609Z,51.30
2023-07-18T21:50:01.412Z,52.10
2023-07-18T21:52:28.331Z,52.30
2023-07-18T21:55:00.928Z,52.00
2023-07-18T21:57:28.045Z,52.00
2023-07-18T21:59:54.834Z,52.10
2023-07-18T22:02:31.953Z,52.40
2023-07-18T22:04:58.868Z,52.10
2023-07-18T22:07:25.728Z,52.50
2023-07-18T22:09:52.489Z,53.10
2023-07-18T22:12:19.226Z,53.90
2023-07-18T22:14:46.186Z,53.30
2023-07-18T22:17:12.996Z,53.90
2023-07-18T22:19:39.970Z,53.20
2023-07-18T22:22:06.857Z,53.10
2023-07-18T22:24:33.646Z,53.10
2023-07-18T22:27:00.526Z,53.00
2023-07-18T22:29:27.867Z,53.30
2023-07-18T22:31:54.786Z,53.50
2023-07-18T22:34:21.749Z,53.60
2023-07-18T22:36:48.728Z,54.20
2023-07-18T22:39:33.218Z,54.90
2023-07-18T22:42:18.931Z,54.90
2023-07-18T22:44:47.896Z,55.10
2023-07-18T22:47:15.283Z,55.00
2023-07-18T22:49:42.927Z,54.10
2023-07-18T22:52:13.406Z,54.20
2023-07-18T22:54:40.688Z,54.30
2023-07-18T22:57:07.698Z,54.20
2023-07-18T22:59:34.814Z,53.80
2023-07-18T23:02:01.507Z,54.20
2023-07-18T23:04:28.994Z,53.70
2023-07-18T23:06:58.405Z,53.70
2023-07-18T23:09:25.212Z,53.70
2023-07-18T23:11:53.809Z,53.40
2023-07-18T23:14:20.767Z,54.00
2023-07-18T23:16:48.039Z,54.70
2023-07-18T23:19:19.772Z,54.30
2023-07-18T23:21:47.139Z,54.40
2023-07-18T23:24:17.377Z,55.00
2023-07-18T23:26:48.567Z,55.30
2023-07-18T23:29:15.325Z,54.50
2023-07-18T23:31:42.111Z,54.30
2023-07-18T23:34:08.949Z,54.30
2023-07-18T23:36:36.048Z,54.70
2023-07-18T23:39:03.029Z,54.50
2023-07-18T23:41:29.883Z,54.80
2023-07-18T23:43:56.710Z,54.70
2023-07-18T23:46:23.593Z,54.80
2023-07-18T23:48:53.369Z,55.60
2023-07-18T23:51:21.334Z,55.60
2023-07-18T23:53:48.426Z,56.30
2023-07-18T23:56:15.180Z,56.60
2023-07-18T23:58:42.077Z,57.30
